Time;durP1;ratioP1;P1;durP2;ratioP2;P2;SDS_P1;SDS_P2;PMS_P1;PMS_P2;Temp;Humidity;BMP_temperature;BMP_pressure;BME280_temperature;BME280_humidity;BME280_pressure;Samples;Min_cycle;Max_cycle;Signal;HPM_P1;HPM_P2
2023/01/16 00:00:42;;;;;;;16.48;11.60;;;;;;;;;;5038302;28;20029;-46
2023/01/16 00:03:09;;;;;;;16.67;12.07;;;;;;;;;;5035684;28;20060;-48
2023/01/16 00:05:36;;;;;;;17.83;11.60;;;;;;;;;;5040681;28;20044;-42
2023/01/16 00:08:02;;;;;;;20.67;13.30;;;;;;;;;;5035525;28;20169;-43
2023/01/16 00:10:29;;;;;;;18.38;12.02;;;;;;;;;;5039138;28;20049;-42
2023/01/16 00:12:55;;;;;;;19.65;10.50;;;;;;;;;;5035875;28;20098;-44
2023/01/16 00:15:22;;;;;;;24.40;10.02;;;;;;;;;;5037360;28;20041;-46
2023/01/16 00:17:49;;;;;;;17.63;13.25;;;;;;;;;;5037972;28;20268;-47
2023/01/16 00:20:16;;;;;;;17.00;10.50;;;;;;;;;;5035749;28;20033;-46
2023/01/16 00:22:43;;;;;;;17.50;10.80;;;;;;;;;;5036968;28;20044;-46
2023/01/16 00:25:09;;;;;;;18.42;11.25;;;;;;;;;;5036730;28;20059;-44
2023/01/16 00:27:36;;;;;;;15.35;9.95;;;;;;;;;;5036888;28;20045;-48
2023/01/16 00:30:04;;;;;;;20.17;10.63;;;;;;;;;;5039434;28;20044;-46
2023/01/16 00:32:30;;;;;;;17.52;9.98;;;;;;;;;;5037826;28;20577;-46
2023/01/16 00:34:57;;;;;;;13.90;10.25;;;;;;;;;;5035547;28;20051;-44
2023/01/16 00:37:24;;;;;;;14.52;9.57;;;;;;;;;;5040827;28;20047;-46
2023/01/16 00:39:54;;;;;;;17.30;9.65;;;;;;;;;;5034564;28;20052;-45
2023/01/16 00:42:20;;;;;;;15.90;10.88;;;;;;;;;;5041025;28;20102;-46
2023/01/16 00:44:47;;;;;;;17.40;10.50;;;;;;;;;;5039377;28;20049;-47
2023/01/16 00:47:13;;;;;;;13.63;9.15;;;;;;;;;;5036845;28;20049;-48
2023/01/16 00:49:40;;;;;;;15.45;9.80;;;;;;;;;;5036155;28;20061;-45
2023/01/16 00:52:07;;;;;;;17.67;9.85;;;;;;;;;;5036458;28;20845;-46
2023/01/16 00:54:33;;;;;;;14.85;9.98;;;;;;;;;;5038891;28;20033;-48
2023/01/16 00:57:00;;;;;;;14.35;9.50;;;;;;;;;;5035649;28;20107;-48
2023/01/16 00:59:26;;;;;;;13.68;9.10;;;;;;;;;;5039472;28;20510;-47
2023/01/16 01:01:53;;;;;;;13.07;9.40;;;;;;;;;;5036243;28;20067;-46
2023/01/16 01:04:20;;;;;;;13.38;8.68;;;;;;;;;;5044405;28;20559;-48
2023/01/16 01:06:46;;;;;;;12.77;8.50;;;;;;;;;;5036131;28;20589;-47
2023/01/16 01:09:13;;;;;;;16.33;10.45;;;;;;;;;;5038589;28;20049;-45
2023/01/16 01:11:40;;;;;;;13.38;9.23;;;;;;;;;;5035920;28;20047;-48
2023/01/16 01:14:06;;;;;;;13.07;9.35;;;;;;;;;;5036802;28;20095;-47
2023/01/16 01:16:33;;;;;;;12.32;8.65;;;;;;;;;;5037212;28;20069;-50
2023/01/16 01:18:59;;;;;;;13.63;8.68;;;;;;;;;;5036392;28;20095;-45
2023/01/16 01:21:26;;;;;;;12.80;8.52;;;;;;;;;;5039501;28;20120;-47
2023/01/16 01:23:54;;;;;;;12.60;8.43;;;;;;;;;;5038256;28;20722;-46
2023/01/16 01:26:21;;;;;;;11.85;8.52;;;;;;;;;;5039843;28;20044;-48
2023/01/16 01:28:48;;;;;;;12.30;8.35;;;;;;;;;;5035668;28;20041;-47
2023/01/16 01:31:14;;;;;;;13.27;9.30;;;;;;;;;;5038559;28;20041;-46
2023/01/16 01:33:41;;;;;;;11.93;8.57;;;;;;;;;;5037078;28;20041;-47
2023/01/16 01:36:08;;;;;;;13.32;8.93;;;;;;;;;;5040415;28;20053;-45
2023/01/16 01:38:35;;;;;;;12.60;8.50;;;;;;;;;;5034706;28;20033;-47
2023/01/16 01:41:02;;;;;;;11.13;7.90;;;;;;;;;;5039322;28;20045;-48
2023/01/16 01:43:43;;;;;;;11.60;7.45;;;;;;;;;;5051581;28;20052;-48
2023/01/16 01:46:28;;;;;;;10.68;7.90;;;;;;;;;;5035366;28;20445;-49
2023/01/16 01:49:00;;;;;;;10.50;8.05;;;;;;;;;;5033665;28;20045;-47
2023/01/16 01:51:30;;;;;;;11.57;8.77;;;;;;;;;;5034181;28;20277;-47
2023/01/16 01:53:59;;;;;;;11.98;7.75;;;;;;;;;;5035983;28;20146;-47
2023/01/16 01:56:35;;;;;;;11.23;8.30;;;;;;;;;;5036747;28;20033;-48
2023/01/16 01:59:14;;;;;;;10.18;7.30;;;;;;;;;;5032270;28;20037;-45
2023/01/16 02:01:40;;;;;;;11.48;7.82;;;;;;;;;;5035513;28;20793;-48
2023/01/16 02:04:10;;;;;;;12.15;9.32;;;;;;;;;;5035740;28;20742;-45
2023/01/16 02:06:40;;;;;;;11.15;7.88;;;;;;;;;;5033952;28;20128;-44
2023/01/16 02:09:07;;;;;;;13.30;8.98;;;;;;;;;;5037399;28;20136;-46
2023/01/16 02:11:37;;;;;;;10.95;7.57;;;;;;;;;;5033016;28;20037;-45
2023/01/16 02:14:12;;;;;;;12.20;8.43;;;;;;;;;;5038877;28;20475;-48
2023/01/16 02:19:38;;;;;;;12.43;8.35;;;;;;;;;;5037383;28;20040;-47
2023/01/16 02:22:25;;;;;;;11.52;7.80;;;;;;;;;;5034957;28;20049;-47
2023/01/16 02:25:03;;;;;;;10.77;7.47;;;;;;;;;;5046159;28;20041;-46
2023/01/16 02:27:33;;;;;;;12.05;7.50;;;;;;;;;;5034248;28;20049;-46
2023/01/16 02:30:13;;;;;;;11.05;7.68;;;;;;;;;;5041612;28;20049;-50
2023/01/16 02:32:40;;;;;;;11.35;7.68;;;;;;;;;;5037490;28;20046;-46
2023/01/16 02:35:07;;;;;;;12.18;7.78;;;;;;;;;;5043242;28;20041;-49
2023/01/16 02:37:33;;;;;;;10.57;8.00;;;;;;;;;;5041311;28;20044;-46
2023/01/16 02:40:06;;;;;;;11.25;7.97;;;;;;;;;;5041668;28;20060;-47
2023/01/16 02:42:51;;;;;;;10.25;6.68;;;;;;;;;;5038154;28;20049;-47
2023/01/16 02:45:20;;;;;;;10.30;6.88;;;;;;;;;;5040449;28;20076;-45
2023/01/16 02:47:58;;;;;;;10.55;7.82;;;;;;;;;;5040265;28;20501;-46
2023/01/16 02:50:28;;;;;;;10.98;7.80;;;;;;;;;;5040209;28;20533;-57
2023/01/16 02:53:00;;;;;;;11.15;7.97;;;;;;;;;;5041158;28;20433;-50
2023/01/16 02:55:30;;;;;;;10.23;7.47;;;;;;;;;;5040195;28;20048;-47
2023/01/16 02:58:01;;;;;;;10.88;7.25;;;;;;;;;;5039366;28;20037;-52
2023/01/16 03:00:28;;;;;;;10.93;7.80;;;;;;;;;;5039659;28;20045;-51
2023/01/16 03:02:55;;;;;;;10.52;7.38;;;;;;;;;;5040528;28;20135;-47
2023/01/16 03:05:22;;;;;;;9.95;7.30;;;;;;;;;;5041042;28;20060;-53
2023/01/16 03:07:52;;;;;;;10.25;7.07;;;;;;;;;;5040546;28;20045;-47
2023/01/16 03:10:42;;;;;;;8.50;5.97;;;;;;;;;;5043054;28;20480;-49
2023/01/16 03:13:24;;;;;;;10.30;6.82;;;;;;;;;;5037498;28;20053;-50
2023/01/16 03:16:09;;;;;;;9.20;6.85;;;;;;;;;;5039060;28;20095;-48
2023/01/16 03:18:45;;;;;;;9.73;6.47;;;;;;;;;;5040386;28;20135;-49
2023/01/16 03:21:16;;;;;;;8.43;6.03;;;;;;;;;;5038543;28;20567;-50
2023/01/16 03:24:03;;;;;;;10.10;7.13;;;;;;;;;;5039897;28;20705;-47
2023/01/16 03:26:38;;;;;;;9.25;6.20;;;;;;;;;;5038853;28;20084;-50
2023/01/16 03:29:24;;;;;;;10.27;7.13;;;;;;;;;;5040361;28;20087;-50
2023/01/16 03:31:55;;;;;;;9.43;7.07;;;;;;;;;;5037282;28;20049;-48
2023/01/16 03:34:22;;;;;;;12.38;7.53;;;;;;;;;;5039608;28;20064;-48
2023/01/16 03:36:56;;;;;;;11.75;8.10;;;;;;;;;;5039346;28;20044;-48
2023/01/16 03:39:28;;;;;;;11.25;7.57;;;;;;;;;;5039796;28;20078;-46
2023/01/16 03:41:58;;;;;;;10.43;6.63;;;;;;;;;;5036839;28;20548;-47
2023/01/16 03:44:32;;;;;;;9.88;7.35;;;;;;;;;;5042535;28;20053;-51
2023/01/16 03:47:00;;;;;;;9.50;6.70;;;;;;;;;;5038782;28;20056;-50
2023/01/16 03:49:30;;;;;;;10.38;7.13;;;;;;;;;;5042228;28;20099;-46
2023/01/16 03:52:01;;;;;;;9.50;6.25;;;;;;;;;;5038182;28;20447;-49
2023/01/16 03:54:36;;;;;;;9.25;6.28;;;;;;;;;;5043009;28;20040;-47
2023/01/16 03:57:18;;;;;;;10.45;6.22;;;;;;;;;;5038301;28;20086;-48
2023/01/16 03:59:45;;;;;;;10.70;6.78;;;;;;;;;;5036945;28;20502;-47
2023/01/16 04:02:19;;;;;;;10.30;6.93;;;;;;;;;;5038389;28;20037;-47
2023/01/16 04:04:45;;;;;;;;;;;;;;;;;;5039401;28;20103;-48
2023/01/16 04:07:24;;;;;;;8.73;5.85;;;;;;;;;;5037719;28;20029;-50
2023/01/16 04:09:55;;;;;;;9.48;6.00;;;;;;;;;;5038251;28;20045;-49
2023/01/16 04:12:25;;;;;;;9.40;6.55;;;;;;;;;;5040453;28;20136;-49
2023/01/16 04:14:55;;;;;;;10.20;6.85;;;;;;;;;;5038757;28;20049;-48
2023/01/16 04:17:22;;;;;;;9.45;6.85;;;;;;;;;;5042560;28;20044;-48
2023/01/16 04:19:49;;;;;;;8.73;6.57;;;;;;;;;;5038633;28;20048;-46
2023/01/16 04:22:20;;;;;;;9.10;6.80;;;;;;;;;;5043951;28;20049;-49
2023/01/16 04:24:47;;;;;;;9.93;7.15;;;;;;;;;;5037963;28;20048;-49
2023/01/16 04:27:14;;;;;;;9.73;6.75;;;;;;;;;;5041956;28;20047;-48
2023/01/16 04:29:40;;;;;;;10.40;7.30;;;;;;;;;;5037909;28;20045;-48
2023/01/16 04:32:07;;;;;;;9.52;6.05;;;;;;;;;;5042310;28;20045;-46
2023/01/16 04:34:33;;;;;;;11.93;6.15;;;;;;;;;;5038026;28;20887;-47
2023/01/16 04:37:00;;;;;;;9.98;6.75;;;;;;;;;;5042657;28;20738;-49
2023/01/16 04:39:27;;;;;;;9.02;6.53;;;;;;;;;;5038222;28;20548;-49
2023/01/16 04:41:53;;;;;;;9.88;6.72;;;;;;;;;;5038292;28;20095;-49
2023/01/16 04:44:20;;;;;;;8.88;6.45;;;;;;;;;;5039972;28;20045;-45
2023/01/16 04:46:46;;;;;;;9.32;6.78;;;;;;;;;;5035260;28;20547;-50
2023/01/16 04:49:13;;;;;;;8.98;6.28;;;;;;;;;;5035248;28;20049;-48
2023/01/16 04:51:40;;;;;;;9.40;6.22;;;;;;;;;;5040051;28;20132;-44
2023/01/16 04:54:07;;;;;;;8.40;5.90;;;;;;;;;;5038199;28;20603;-47
2023/01/16 04:56:33;;;;;;;11.07;6.50;;;;;;;;;;5035635;28;20033;-50
2023/01/16 04:59:00;;;;;;;8.55;5.93;;;;;;;;;;5040846;28;20048;-49
2023/01/16 05:01:27;;;;;;;8.63;6.30;;;;;;;;;;5034228;28;20099;-50
2023/01/16 05:03:53;;;;;;;10.45;6.88;;;;;;;;;;5036452;28;20045;-49
2023/01/16 05:06:20;;;;;;;9.30;6.95;;;;;;;;;;5036856;28;20084;-47
2023/01/16 05:08:46;;;;;;;9.65;6.50;;;;;;;;;;5040694;28;20053;-48
2023/01/16 05:11:13;;;;;;;9.15;6.38;;;;;;;;;;5034928;28;20167;-45
2023/01/16 05:13:40;;;;;;;9.13;5.78;;;;;;;;;;5032712;28;20118;-49
2023/01/16 05:16:06;;;;;;;8.27;5.47;;;;;;;;;;5038777;28;20033;-50
2023/01/16 05:18:33;;;;;;;8.63;6.20;;;;;;;;;;5034087;28;20041;-52
2023/01/16 05:21:00;;;;;;;8.82;5.68;;;;;;;;;;5035864;28;20057;-46
2023/01/16 05:23:27;;;;;;;10.02;6.30;;;;;;;;;;5037234;28;20036;-50
2023/01/16 05:25:53;;;;;;;8.77;6.70;;;;;;;;;;5036730;28;20045;-49
2023/01/16 05:28:20;;;;;;;8.52;6.43;;;;;;;;;;5036943;28;20130;-49
2023/01/16 05:30:47;;;;;;;9.23;5.78;;;;;;;;;;5038600;28;20049;-49
2023/01/16 05:33:14;;;;;;;9.00;5.85;;;;;;;;;;5035164;28;20799;-48
2023/01/16 05:35:40;;;;;;;9.18;6.03;;;;;;;;;;5034288;28;20049;-46
2023/01/16 05:38:07;;;;;;;9.00;6.03;;;;;;;;;;5033461;28;20037;-47
2023/01/16 05:40:34;;;;;;;8.55;6.07;;;;;;;;;;5036914;28;20048;-47
2023/01/16 05:43:00;;;;;;;10.00;6.75;;;;;;;;;;5035703;28;20076;-49
2023/01/16 05:45:27;;;;;;;10.20;6.85;;;;;;;;;;5037780;28;20045;-50
2023/01/16 05:47:55;;;;;;;9.85;5.95;;;;;;;;;;5036043;28;20033;-45
2023/01/16 05:50:22;;;;;;;10.18;6.32;;;;;;;;;;5036604;28;20545;-48
2023/01/16 05:52:49;;;;;;;8.10;6.28;;;;;;;;;;5042658;28;20052;-48
2023/01/16 05:55:16;;;;;;;10.65;6.57;;;;;;;;;;5038343;28;20516;-45
2023/01/16 05:57:43;;;;;;;9.80;6.45;;;;;;;;;;5038640;28;20043;-47
2023/01/16 06:00:10;;;;;;;10.15;6.35;;;;;;;;;;5038486;28;20045;-46
2023/01/16 06:02:36;;;;;;;9.43;6.20;;;;;;;;;;5040038;28;20502;-46
2023/01/16 06:05:03;;;;;;;8.85;7.03;;;;;;;;;;5041096;28;21537;-45
2023/01/16 06:07:30;;;;;;;10.15;7.60;;;;;;;;;;5040114;28;20048;-45
2023/01/16 06:09:57;;;;;;;9.10;6.60;;;;;;;;;;5043126;28;20118;-44
2023/01/16 06:12:24;;;;;;;8.38;6.80;;;;;;;;;;5039566;28;20063;-47
2023/01/16 06:14:51;;;;;;;16.05;6.93;;;;;;;;;;5041211;28;20559;-48
2023/01/16 06:17:19;;;;;;;13.82;8.70;;;;;;;;;;5039944;28;20044;-46
2023/01/16 06:19:45;;;;;;;11.35;7.88;;;;;;;;;;5040833;28;20045;-45
2023/01/16 06:22:12;;;;;;;15.73;8.10;;;;;;;;;;5037625;28;20053;-47
2023/01/16 06:24:39;;;;;;;14.90;7.75;;;;;;;;;;5040632;28;20541;-46
2023/01/16 06:27:05;;;;;;;10.68;7.05;;;;;;;;;;5039833;28;20107;-44
2023/01/16 06:29:33;;;;;;;10.20;6.65;;;;;;;;;;5041260;28;20037;-46
2023/01/16 06:31:59;;;;;;;11.05;7.50;;;;;;;;;;5038837;28;20146;-46
2023/01/16 06:34:27;;;;;;;12.25;7.40;;;;;;;;;;5042766;28;20095;-51
2023/01/16 06:36:53;;;;;;;10.32;7.05;;;;;;;;;;5042082;28;20033;-45
2023/01/16 06:39:20;;;;;;;11.52;7.38;;;;;;;;;;5045005;28;20131;-50
2023/01/16 06:41:47;;;;;;;10.95;7.45;;;;;;;;;;5043915;28;20044;-47
2023/01/16 06:44:13;;;;;;;9.65;6.88;;;;;;;;;;5043395;28;20049;-44
2023/01/16 06:46:40;;;;;;;10.00;7.18;;;;;;;;;;5045521;28;20131;-47
2023/01/16 06:49:10;;;;;;;8.80;6.88;;;;;;;;;;5043187;28;20048;-46
2023/01/16 06:51:37;;;;;;;11.18;6.30;;;;;;;;;;5046618;28;20045;-49
2023/01/16 06:54:04;;;;;;;9.25;6.82;;;;;;;;;;5041568;28;20033;-45
2023/01/16 06:56:30;;;;;;;9.45;6.95;;;;;;;;;;5040527;28;20053;-47
2023/01/16 06:58:57;;;;;;;9.35;7.47;;;;;;;;;;5039341;28;20437;-48
2023/01/16 07:01:24;;;;;;;9.30;6.55;;;;;;;;;;5040629;28;20045;-45
2023/01/16 07:03:50;;;;;;;9.57;6.68;;;;;;;;;;5037893;28;20052;-47
2023/01/16 07:06:18;;;;;;;9.93;6.72;;;;;;;;;;5039573;28;20072;-47
2023/01/16 07:08:45;;;;;;;8.95;6.13;;;;;;;;;;5039295;28;20045;-48
2023/01/16 07:11:12;;;;;;;9.50;5.95;;;;;;;;;;5038385;28;20095;-46
2023/01/16 07:13:38;;;;;;;9.23;6.95;;;;;;;;;;5038707;28;20075;-46
2023/01/16 07:24:24;;;;;;;9.82;7.40;;;;;;;;;;5038518;28;20056;-45
2023/01/16 07:26:53;;;;;;;9.40;7.40;;;;;;;;;;5036943;28;20068;-44
2023/01/16 07:29:20;;;;;;;9.63;6.70;;;;;;;;;;5037557;28;20040;-47
2023/01/16 07:31:47;;;;;;;10.32;5.90;;;;;;;;;;5036820;28;20060;-46
2023/01/16 07:34:15;;;;;;;10.40;7.15;;;;;;;;;;5039213;28;20099;-49
2023/01/16 07:36:41;;;;;;;;;;;;;;;;;;5036156;28;20562;-45
2023/01/16 07:39:08;;;;;;;9.82;7.05;;;;;;;;;;5039697;28;20022;-48
2023/01/16 07:41:35;;;;;;;11.68;7.57;;;;;;;;;;5037911;28;20048;-45
2023/01/16 07:44:06;;;;;;;9.45;6.28;;;;;;;;;;5038229;28;20113;-45
2023/01/16 07:46:32;;;;;;;8.77;6.20;;;;;;;;;;5037458;28;20048;-47
2023/01/16 07:48:59;;;;;;;9.80;7.07;;;;;;;;;;5039779;28;20045;-46
2023/01/16 07:51:26;;;;;;;11.02;6.85;;;;;;;;;;5036534;28;20583;-45
2023/01/16 07:53:52;;;;;;;9.27;6.88;;;;;;;;;;5035938;28;20048;-46
2023/01/16 07:56:19;;;;;;;10.38;7.18;;;;;;;;;;5036240;28;20033;-46
2023/01/16 07:58:49;;;;;;;11.00;5.93;;;;;;;;;;5033893;28;20041;-45
2023/01/16 08:01:15;;;;;;;10.18;6.90;;;;;;;;;;5040526;28;20033;-47
2023/01/16 08:03:42;;;;;;;8.35;5.78;;;;;;;;;;5033992;28;20056;-47
2023/01/16 08:06:09;;;;;;;9.38;6.32;;;;;;;;;;5040192;28;20072;-47
2023/01/16 08:08:35;;;;;;;9.93;6.20;;;;;;;;;;5034155;28;20201;-45
2023/01/16 08:11:35;;;;;;;11.23;8.20;;;;;;;;;;5035431;28;20044;-45
2023/01/16 08:13:49;;;;;;;13.10;7.53;;;;;;;;;;5035708;28;20033;-46
2023/01/16 08:16:15;;;;;;;11.35;7.03;;;;;;;;;;5036525;28;20048;-46
2023/01/16 08:18:42;;;;;;;10.45;6.47;;;;;;;;;;5032715;28;20041;-46
2023/01/16 08:21:08;;;;;;;10.70;6.88;;;;;;;;;;5040269;28;20045;-45
2023/01/16 08:23:35;;;;;;;14.77;7.90;;;;;;;;;;5039240;28;20200;-46
2023/01/16 08:26:01;;;;;;;11.48;7.95;;;;;;;;;;5034644;28;20065;-46
2023/01/16 08:28:28;;;;;;;8.93;6.18;;;;;;;;;;5035052;28;20311;-45
2023/01/16 08:30:55;;;;;;;11.18;6.07;;;;;;;;;;5031176;28;20713;-46
2023/01/16 08:33:21;;;;;;;9.35;6.57;;;;;;;;;;5034866;28;20049;-47
2023/01/16 08:35:48;;;;;;;10.98;6.85;;;;;;;;;;5030976;28;20041;-45
2023/01/16 08:38:14;;;;;;;15.95;7.05;;;;;;;;;;5036867;28;20052;-45
2023/01/16 08:40:41;;;;;;;9.68;6.22;;;;;;;;;;5033654;28;20033;-45
2023/01/16 08:51:25;;;;;;;9.30;6.07;;;;;;;;;;5034024;28;20300;-49
2023/01/16 08:53:53;;;;;;;10.32;5.93;;;;;;;;;;5037444;28;20033;-48
2023/01/16 08:56:20;;;;;;;9.25;6.70;;;;;;;;;;5035726;28;20037;-47
2023/01/16 08:58:47;;;;;;;14.65;6.75;;;;;;;;;;5036735;28;20149;-45
2023/01/16 09:01:15;;;;;;;8.93;5.97;;;;;;;;;;5033243;28;20929;-46
2023/01/16 09:03:42;;;;;;;10.25;6.50;;;;;;;;;;5031275;28;20195;-48
2023/01/16 09:06:08;;;;;;;10.02;6.53;;;;;;;;;;5035334;28;20051;-48
2023/01/16 09:08:35;;;;;;;8.30;6.10;;;;;;;;;;5031704;28;20765;-48
2023/01/16 09:13:50;;;;;;;9.40;5.97;;;;;;;;;;5034739;28;20103;-46
2023/01/16 09:16:17;;;;;;;7.28;5.22;;;;;;;;;;5042543;28;20179;-49
2023/01/16 09:18:44;;;;;;;;;;;;;;;;;;5035482;28;20975;-47
2023/01/16 09:21:11;;;;;;;11.02;6.00;;;;;;;;;;5032265;28;20717;-48
2023/01/16 09:23:37;;;;;;;8.20;5.43;;;;;;;;;;5040673;28;20040;-49
2023/01/16 09:26:04;;;;;;;7.82;4.88;;;;;;;;;;5036638;28;21305;-47
2023/01/16 09:28:31;;;;;;;7.78;5.43;;;;;;;;;;5034388;28;20055;-47
2023/01/16 09:30:58;;;;;;;8.48;5.18;;;;;;;;;;5041673;28;20037;-47
2023/01/16 09:33:25;;;;;;;6.82;5.13;;;;;;;;;;5032551;28;20065;-49
2023/01/16 09:35:51;;;;;;;9.98;5.50;;;;;;;;;;5035487;28;20944;-47
2023/01/16 09:38:18;;;;;;;7.85;5.47;;;;;;;;;;5037797;28;20086;-47
2023/01/16 09:40:49;;;;;;;9.35;5.30;;;;;;;;;;5039509;28;20067;-45
2023/01/16 09:46:06;;;;;;;10.60;5.20;;;;;;;;;;5038448;28;20041;-46
2023/01/16 09:48:35;;;;;;;7.38;4.63;;;;;;;;;;5038925;28;20044;-48
2023/01/16 09:51:05;;;;;;;8.27;4.43;;;;;;;;;;5038297;28;20045;-49
2023/01/16 09:59:54;;;;;;;7.85;5.20;;;;;;;;;;5038259;28;20041;-48
2023/01/16 10:02:24;;;;;;;8.25;5.28;;;;;;;;;;5037449;28;20045;-47
2023/01/16 10:04:52;;;;;;;8.02;4.95;;;;;;;;;;5039484;28;20064;-48
2023/01/16 10:07:21;;;;;;;11.77;5.32;;;;;;;;;;5039860;28;20033;-46
2023/01/16 10:10:07;;;;;;;7.20;4.20;;;;;;;;;;5038378;28;20064;-46
2023/01/16 10:12:34;;;;;;;6.82;4.10;;;;;;;;;;5037871;28;20686;-45
2023/01/16 10:15:23;;;;;;;8.90;4.15;;;;;;;;;;5040807;28;20307;-44
2023/01/16 10:18:16;;;;;;;9.15;4.13;;;;;;;;;;5038074;28;20041;-45
2023/01/16 10:20:43;;;;;;;8.82;4.63;;;;;;;;;;5040399;28;20045;-44
2023/01/16 10:23:28;;;;;;;6.63;4.25;;;;;;;;;;5038679;28;20037;-44
2023/01/16 10:25:54;;;;;;;9.45;3.83;;;;;;;;;;5038249;28;20053;-43
2023/01/16 10:28:25;;;;;;;7.45;4.35;;;;;;;;;;5036443;28;20045;-44
2023/01/16 10:31:11;;;;;;;8.43;4.68;;;;;;;;;;5038725;28;21615;-43
2023/01/16 10:33:47;;;;;;;11.20;4.25;;;;;;;;;;5034121;28;20095;-43
2023/01/16 10:36:20;;;;;;;8.15;4.40;;;;;;;;;;5041979;28;20725;-45
2023/01/16 10:38:55;;;;;;;14.35;4.72;;;;;;;;;;5035416;28;20120;-49
2023/01/16 10:50:07;;;;;;;12.68;5.43;;;;;;;;;;5035182;28;20037;-42
2023/01/16 10:52:35;;;;;;;9.18;5.00;;;;;;;;;;5040548;28;20036;-52
2023/01/16 10:55:02;;;;;;;10.27;6.00;;;;;;;;;;5036736;28;20037;-50
2023/01/16 10:57:28;;;;;;;12.32;5.97;;;;;;;;;;5040550;28;20041;-48
2023/01/16 10:59:59;;;;;;;12.85;5.90;;;;;;;;;;5033921;28;20041;-45
2023/01/16 11:02:29;;;;;;;7.82;4.75;;;;;;;;;;5037537;28;20045;-45
2023/01/16 11:04:56;;;;;;;7.53;4.80;;;;;;;;;;5036560;28;20044;-45
2023/01/16 11:07:26;;;;;;;7.75;4.63;;;;;;;;;;5041006;28;20136;-45
2023/01/16 11:09:52;;;;;;;9.63;4.78;;;;;;;;;;5035213;28;20533;-45
2023/01/16 11:20:45;;;;;;;7.07;4.40;;;;;;;;;;5034982;28;20060;-44
2023/01/16 11:23:19;;;;;;;14.57;4.97;;;;;;;;;;5038601;28;20071;-44
2023/01/16 11:25:47;;;;;;;10.27;4.75;;;;;;;;;;5033714;28;20049;-48
2023/01/16 11:28:22;;;;;;;8.50;4.47;;;;;;;;;;5033418;28;20569;-43
2023/01/16 11:30:52;;;;;;;10.32;4.78;;;;;;;;;;5035774;28;20044;-44
2023/01/16 11:33:22;;;;;;;6.25;4.13;;;;;;;;;;5041839;28;20083;-44
2023/01/16 11:35:51;;;;;;;7.93;4.93;;;;;;;;;;5039314;28;20076;-45
2023/01/16 11:38:18;;;;;;;11.50;4.88;;;;;;;;;;5039538;28;20033;-44
2023/01/16 11:40:46;;;;;;;8.60;4.38;;;;;;;;;;5041566;28;20041;-43
2023/01/16 11:46:11;;;;;;;9.88;5.75;;;;;;;;;;5033980;28;20093;-43
2023/01/16 11:48:44;;;;;;;5.80;4.35;;;;;;;;;;5039500;28;20142;-45
2023/01/16 11:51:16;;;;;;;6.30;4.75;;;;;;;;;;5034613;28;20053;-44
2023/01/16 11:53:45;;;;;;;7.93;4.25;;;;;;;;;;5038440;28;20041;-45
2023/01/16 11:56:15;;;;;;;6.20;4.05;;;;;;;;;;5045161;28;20152;-43
2023/01/16 11:58:45;;;;;;;7.60;4.28;;;;;;;;;;5036825;28;20157;-44
2023/01/16 12:01:16;;;;;;;9.15;4.32;;;;;;;;;;5040281;28;20045;-45
2023/01/16 12:03:47;;;;;;;6.43;3.72;;;;;;;;;;5036081;28;20712;-44
2023/01/16 12:06:23;;;;;;;6.72;3.60;;;;;;;;;;5040101;28;20481;-43
2023/01/16 12:09:08;;;;;;;5.30;3.25;;;;;;;;;;5034622;28;20127;-50
2023/01/16 12:11:42;;;;;;;7.88;4.22;;;;;;;;;;5037729;28;20082;-47
2023/01/16 12:14:17;;;;;;;5.18;3.33;;;;;;;;;;5034135;28;20107;-48
2023/01/16 12:16:57;;;;;;;7.57;3.95;;;;;;;;;;5038398;28;20045;-48
2023/01/16 12:19:23;;;;;;;5.78;3.85;;;;;;;;;;5035211;28;20159;-47
2023/01/16 12:21:56;;;;;;;6.18;3.55;;;;;;;;;;5040362;28;20044;-48
2023/01/16 12:24:31;;;;;;;7.55;4.32;;;;;;;;;;5034308;28;20046;-47
2023/01/16 12:26:58;;;;;;;6.72;4.15;;;;;;;;;;5038855;28;20846;-46
2023/01/16 12:29:32;;;;;;;6.78;4.53;;;;;;;;;;5035716;28;20114;-46
2023/01/16 12:32:02;;;;;;;9.25;3.63;;;;;;;;;;5035796;28;20179;-44
2023/01/16 12:34:37;;;;;;;7.03;3.92;;;;;;;;;;5034164;28;20069;-47
2023/01/16 12:37:19;;;;;;;6.47;4.07;;;;;;;;;;5037007;28;20056;-45
2023/01/16 12:39:46;;;;;;;6.18;4.95;;;;;;;;;;5033452;28;20049;-46
2023/01/16 12:45:07;;;;;;;6.47;4.63;;;;;;;;;;5030274;28;20048;-49
2023/01/16 12:47:42;;;;;;;7.30;4.07;;;;;;;;;;5036915;28;20099;-47
2023/01/16 12:50:22;;;;;;;10.77;4.97;;;;;;;;;;5033033;28;20064;-49
2023/01/16 12:53:23;;;;;;;8.85;4.43;;;;;;;;;;5036068;28;20524;-45
2023/01/16 12:56:02;;;;;;;6.25;4.40;;;;;;;;;;5033292;28;20040;-46
2023/01/16 12:58:38;;;;;;;6.22;4.32;;;;;;;;;;5033913;28;20044;-46
2023/01/16 13:01:07;;;;;;;6.65;4.85;;;;;;;;;;5032405;28;20780;-48
2023/01/16 13:03:41;;;;;;;6.07;3.08;;;;;;;;;;5033472;28;20049;-46
2023/01/16 13:06:10;;;;;;;6.97;3.30;;;;;;;;;;5033256;28;20049;-48
2023/01/16 13:08:40;;;;;;;6.63;4.07;;;;;;;;;;5035719;28;20678;-50
2023/01/16 13:14:05;;;;;;;6.88;4.20;;;;;;;;;;5036275;28;20142;-48
2023/01/16 13:16:34;;;;;;;6.30;3.13;;;;;;;;;;5039847;28;20072;-46
2023/01/16 13:19:09;;;;;;;8.75;3.72;;;;;;;;;;5035576;28;20045;-47
2023/01/16 13:21:41;;;;;;;7.57;3.67;;;;;;;;;;5036428;28;20041;-48
2023/01/16 13:24:17;;;;;;;5.90;4.03;;;;;;;;;;5031490;28;20073;-45
2023/01/16 13:26:45;;;;;;;5.93;3.55;;;;;;;;;;5036447;28;20572;-47
2023/01/16 13:29:22;;;;;;;6.30;3.28;;;;;;;;;;5032217;28;20106;-45
2023/01/16 13:31:53;;;;;;;5.68;3.50;;;;;;;;;;5038453;28;20049;-48
2023/01/16 13:34:29;;;;;;;6.13;3.08;;;;;;;;;;5028583;28;20113;-48
2023/01/16 13:36:59;;;;;;;6.47;3.15;;;;;;;;;;5032543;28;20045;-47
2023/01/16 13:39:44;;;;;;;7.80;3.58;;;;;;;;;;5036491;28;20068;-47
2023/01/16 13:42:13;;;;;;;4.57;2.80;;;;;;;;;;5037541;28;20095;-47
2023/01/16 13:47:29;;;;;;;4.88;3.45;;;;;;;;;;5037088;28;20052;-48
2023/01/16 13:50:05;;;;;;;6.38;3.30;;;;;;;;;;5031246;28;20048;-45
2023/01/16 13:52:31;;;;;;;5.43;3.00;;;;;;;;;;5033341;28;20036;-46
2023/01/16 13:55:00;;;;;;;5.97;3.67;;;;;;;;;;5028594;28;20073;-45
2023/01/16 13:57:27;;;;;;;6.78;3.40;;;;;;;;;;5036490;28;20045;-48
2023/01/16 13:59:55;;;;;;;5.90;3.35;;;;;;;;;;5029277;28;20812;-48
2023/01/16 14:02:24;;;;;;;6.40;3.92;;;;;;;;;;5029601;28;20040;-47
2023/01/16 14:05:11;;;;;;;5.38;3.38;;;;;;;;;;5033618;28;20060;-47
2023/01/16 14:10:46;;;;;;;6.60;3.00;;;;;;;;;;5033396;28;20704;-46
2023/01/16 14:13:14;;;;;;;11.60;3.33;;;;;;;;;;5033217;28;20049;-49
2023/01/16 14:18:42;;;;;;;6.40;3.38;;;;;;;;;;5031840;28;20599;-51
2023/01/16 14:21:12;;;;;;;6.55;3.53;;;;;;;;;;5030753;28;20572;-47
2023/01/16 14:26:39;;;;;;;5.82;2.38;;;;;;;;;;5034753;28;20060;-49
2023/01/16 14:29:13;;;;;;;6.60;3.53;;;;;;;;;;5037445;28;20149;-48
2023/01/16 14:31:44;;;;;;;8.25;2.63;;;;;;;;;;5037211;28;20033;-49
2023/01/16 14:34:21;;;;;;;6.18;2.70;;;;;;;;;;5034904;28;20052;-46
2023/01/16 14:36:50;;;;;;;4.38;2.65;;;;;;;;;;5035476;28;20132;-52
2023/01/16 14:39:31;;;;;;;6.05;3.50;;;;;;;;;;5035549;28;20160;-48
2023/01/16 14:56:34;;;;;;;9.18;4.78;;;;;;;;;;5037941;28;20682;-48
2023/01/16 14:59:07;;;;;;;6.15;3.33;;;;;;;;;;5035687;28;20045;-48
2023/01/16 15:04:24;;;;;;;7.30;2.47;;;;;;;;;;5035293;28;20075;-47
2023/01/16 15:06:55;;;;;;;7.00;3.08;;;;;;;;;;5040644;28;20470;-48
2023/01/16 15:09:22;;;;;;;8.18;2.60;;;;;;;;;;5038963;28;20518;-48
2023/01/16 15:11:51;;;;;;;5.53;3.45;;;;;;;;;;5040376;28;20041;-49
2023/01/16 15:14:33;;;;;;;7.10;3.42;;;;;;;;;;5034903;28;20053;-44
2023/01/16 15:23:02;;;;;;;5.88;3.50;;;;;;;;;;5038653;28;20116;-45
2023/01/16 15:25:47;;;;;;;7.45;3.13;;;;;;;;;;5037155;28;20041;-46
2023/01/16 15:28:32;;;;;;;7.93;3.25;;;;;;;;;;5032358;28;20049;-47
2023/01/16 15:31:00;;;;;;;5.22;2.85;;;;;;;;;;5033942;28;21110;-48
2023/01/16 15:36:19;;;;;;;6.75;2.80;;;;;;;;;;5033055;28;20132;-48
2023/01/16 15:38:53;;;;;;;6.22;4.32;;;;;;;;;;5035410;28;20044;-48
2023/01/16 15:46:32;;;;;;;5.57;2.70;;;;;;;;;;5031552;28;20041;-48
2023/01/16 15:47:04;;;;;;;6.85;4.32;;;;;;;;;;5032539;28;20037;-47
2023/01/16 15:49:40;;;;;;;11.88;2.92;;;;;;;;;;5037342;28;20053;-46
2023/01/16 15:52:06;;;;;;;6.50;3.20;;;;;;;;;;5034658;28;20637;-48
2023/01/16 15:54:33;;;;;;;4.55;2.58;;;;;;;;;;5062647;28;20045;-47
2023/01/16 15:56:59;;;;;;;6.85;3.00;;;;;;;;;;5035219;28;20115;-46
2023/01/16 15:59:37;;;;;;;7.00;2.75;;;;;;;;;;5033824;28;21051;-47
2023/01/16 16:02:17;;;;;;;5.88;2.97;;;;;;;;;;5033156;28;20094;-47
2023/01/16 16:04:44;;;;;;;8.10;2.63;;;;;;;;;;5037051;28;20052;-49
2023/01/16 16:07:12;;;;;;;6.57;2.92;;;;;;;;;;5033562;28;20053;-45
2023/01/16 16:09:39;;;;;;;8.63;2.85;;;;;;;;;;5034536;28;20056;-48
2023/01/16 16:12:06;;;;;;;5.85;2.92;;;;;;;;;;5037257;28;20765;-49
2023/01/16 16:20:27;;;;;;;6.82;3.55;;;;;;;;;;5034511;28;20056;-46
2023/01/16 16:22:56;;;;;;;6.60;2.97;;;;;;;;;;5042195;28;20071;-49
2023/01/16 16:25:36;;;;;;;5.57;2.97;;;;;;;;;;5037043;28;20140;-47
2023/01/16 16:28:02;;;;;;;;;;;;;;;;;;5037412;28;20517;-47
2023/01/16 16:30:29;;;;;;;8.48;3.42;;;;;;;;;;5031750;28;19916;-47
2023/01/16 16:32:56;;;;;;;7.00;4.15;;;;;;;;;;5035047;28;20045;-47
2023/01/16 16:35:27;;;;;;;4.90;2.85;;;;;;;;;;5035937;28;20064;-44
2023/01/16 16:37:54;;;;;;;7.25;3.65;;;;;;;;;;5033022;28;20040;-44